sensor_id;sensor_type;location;lat;lon;timestamp;P1;durP1;ratioP1;P2;durP2;ratioP2
45540;SDS011;31265;49.680;8.608;2023-04-03T00:01:30;7.00;;;0.95;;
45540;SDS011;31265;49.680;8.608;2023-04-03T00:04:00;2.92;;;1.13;;
45540;SDS011;31265;49.680;8.608;2023-04-03T00:06:29;1.48;;;1.00;;
45540;SDS011;31265;49.680;8.608;2023-04-03T00:08:59;2.40;;;1.30;;
45540;SDS011;31265;49.680;8.608;2023-04-03T00:11:27;1.65;;;0.93;;
45540;SDS011;31265;49.680;8.608;2023-04-03T00:13:56;2.20;;;1.00;;
45540;SDS011;31265;49.680;8.608;2023-04-03T00:16:24;2.13;;;1.02;;
45540;SDS011;31265;49.680;8.608;2023-04-03T00:18:53;2.33;;;0.93;;
45540;SDS011;31265;49.680;8.608;2023-04-03T00:21:23;3.40;;;1.67;;
45540;SDS011;31265;49.680;8.608;2023-04-03T00:26:19;3.67;;;1.17;;
45540;SDS011;31265;49.680;8.608;2023-04-03T00:28:47;2.83;;;1.20;;
45540;SDS011;31265;49.680;8.608;2023-04-03T00:31:16;2.17;;;1.15;;
45540;SDS011;31265;49.680;8.608;2023-04-03T00:33:44;1.90;;;0.95;;
45540;SDS011;31265;49.680;8.608;2023-04-03T00:36:14;2.08;;;0.70;;
45540;SDS011;31265;49.680;8.608;2023-04-03T00:38:44;2.45;;;1.00;;
45540;SDS011;31265;49.680;8.608;2023-04-03T00:41:13;2.25;;;0.98;;
45540;SDS011;31265;49.680;8.608;2023-04-03T00:43:42;2.05;;;1.13;;
45540;SDS011;31265;49.680;8.608;2023-04-03T00:46:10;2.05;;;1.25;;
45540;SDS011;31265;49.680;8.608;2023-04-03T00:48:39;7.03;;;1.25;;
45540;SDS011;31265;49.680;8.608;2023-04-03T00:51:12;2.60;;;1.13;;
45540;SDS011;31265;49.680;8.608;2023-04-03T00:53:44;5.05;;;1.30;;
45540;SDS011;31265;49.680;8.608;2023-04-03T00:56:16;1.23;;;0.68;;
45540;SDS011;31265;49.680;8.608;2023-04-03T00:58:49;2.75;;;1.23;;
45540;SDS011;31265;49.680;8.608;2023-04-03T01:01:23;0.68;;;0.45;;
45540;SDS011;31265;49.680;8.608;2023-04-03T01:03:57;1.63;;;1.05;;
45540;SDS011;31265;49.680;8.608;2023-04-03T01:06:27;3.30;;;1.30;;
45540;SDS011;31265;49.680;8.608;2023-04-03T01:09:07;6.40;;;1.50;;
45540;SDS011;31265;49.680;8.608;2023-04-03T01:11:36;2.42;;;1.17;;
45540;SDS011;31265;49.680;8.608;2023-04-03T01:14:05;3.70;;;1.10;;
45540;SDS011;31265;49.680;8.608;2023-04-03T01:16:33;3.25;;;1.30;;
45540;SDS011;31265;49.680;8.608;2023-04-03T01:19:02;1.67;;;0.90;;
45540;SDS011;31265;49.680;8.608;2023-04-03T01:21:46;2.97;;;0.98;;
45540;SDS011;31265;49.680;8.608;2023-04-03T01:24:31;3.80;;;1.48;;
45540;SDS011;31265;49.680;8.608;2023-04-03T01:27:05;1.25;;;0.70;;
45540;SDS011;31265;49.680;8.608;2023-04-03T01:29:36;2.33;;;1.40;;
45540;SDS011;31265;49.680;8.608;2023-04-03T01:32:07;1.88;;;1.15;;
45540;SDS011;31265;49.680;8.608;2023-04-03T01:34:40;2.38;;;1.23;;
45540;SDS011;31265;49.680;8.608;2023-04-03T01:37:09;3.17;;;0.93;;
45540;SDS011;31265;49.680;8.608;2023-04-03T01:39:39;1.40;;;0.60;;
45540;SDS011;31265;49.680;8.608;2023-04-03T01:42:09;3.45;;;1.67;;
45540;SDS011;31265;49.680;8.608;2023-04-03T01:44:42;2.55;;;1.55;;
45540;SDS011;31265;49.680;8.608;2023-04-03T01:47:13;2.97;;;1.38;;
45540;SDS011;31265;49.680;8.608;2023-04-03T01:49:42;2.15;;;1.42;;
45540;SDS011;31265;49.680;8.608;2023-04-03T01:52:11;6.73;;;1.57;;
45540;SDS011;31265;49.680;8.608;2023-04-03T01:54:40;3.30;;;1.47;;
45540;SDS011;31265;49.680;8.608;2023-04-03T01:57:08;2.00;;;1.00;;
45540;SDS011;31265;49.680;8.608;2023-04-03T01:59:37;1.95;;;1.02;;
45540;SDS011;31265;49.680;8.608;2023-04-03T02:02:06;3.63;;;1.17;;
45540;SDS011;31265;49.680;8.608;2023-04-03T02:04:40;2.95;;;1.08;;
45540;SDS011;31265;49.680;8.608;2023-04-03T02:09:37;3.65;;;0.85;;
45540;SDS011;31265;49.680;8.608;2023-04-03T02:12:07;1.80;;;1.15;;
45540;SDS011;31265;49.680;8.608;2023-04-03T02:14:37;3.80;;;1.50;;
45540;SDS011;31265;49.680;8.608;2023-04-03T02:17:05;2.60;;;1.15;;
45540;SDS011;31265;49.680;8.608;2023-04-03T02:19:35;2.60;;;1.40;;
45540;SDS011;31265;49.680;8.608;2023-04-03T02:22:16;2.85;;;1.45;;
45540;SDS011;31265;49.680;8.608;2023-04-03T02:24:44;2.70;;;1.30;;
45540;SDS011;31265;49.680;8.608;2023-04-03T02:27:15;2.53;;;1.27;;
45540;SDS011;31265;49.680;8.608;2023-04-03T02:29:43;2.95;;;1.55;;
45540;SDS011;31265;49.680;8.608;2023-04-03T02:32:15;4.03;;;1.80;;
45540;SDS011;31265;49.680;8.608;2023-04-03T02:34:43;2.88;;;1.48;;
45540;SDS011;31265;49.680;8.608;2023-04-03T02:37:16;1.80;;;1.13;;
45540;SDS011;31265;49.680;8.608;2023-04-03T02:39:47;1.98;;;1.25;;
45540;SDS011;31265;49.680;8.608;2023-04-03T02:42:18;1.85;;;1.00;;
45540;SDS011;31265;49.680;8.608;2023-04-03T02:44:47;4.88;;;1.48;;
45540;SDS011;31265;49.680;8.608;2023-04-03T02:47:15;2.50;;;0.93;;
45540;SDS011;31265;49.680;8.608;2023-04-03T02:49:46;6.80;;;1.55;;
45540;SDS011;31265;49.680;8.608;2023-04-03T02:52:16;1.73;;;0.75;;
45540;SDS011;31265;49.680;8.608;2023-04-03T02:54:47;2.30;;;1.15;;
45540;SDS011;31265;49.680;8.608;2023-04-03T02:57:17;4.05;;;1.42;;
45540;SDS011;31265;49.680;8.608;2023-04-03T02:59:46;3.13;;;1.60;;
45540;SDS011;31265;49.680;8.608;2023-04-03T03:02:15;5.28;;;1.58;;
45540;SDS011;31265;49.680;8.608;2023-04-03T03:04:43;1.80;;;1.02;;
45540;SDS011;31265;49.680;8.608;2023-04-03T03:07:12;1.63;;;1.13;;
45540;SDS011;31265;49.680;8.608;2023-04-03T03:09:43;5.97;;;1.73;;
45540;SDS011;31265;49.680;8.608;2023-04-03T03:12:11;2.03;;;1.00;;
45540;SDS011;31265;49.680;8.608;2023-04-03T03:14:40;3.58;;;1.35;;
45540;SDS011;31265;49.680;8.608;2023-04-03T03:17:09;2.35;;;1.30;;
45540;SDS011;31265;49.680;8.608;2023-04-03T03:19:40;3.40;;;1.30;;
45540;SDS011;31265;49.680;8.608;2023-04-03T03:22:09;5.75;;;1.48;;
45540;SDS011;31265;49.680;8.608;2023-04-03T03:24:37;3.60;;;1.40;;
45540;SDS011;31265;49.680;8.608;2023-04-03T03:27:07;2.83;;;1.10;;
45540;SDS011;31265;49.680;8.608;2023-04-03T03:29:35;1.88;;;1.00;;
45540;SDS011;31265;49.680;8.608;2023-04-03T03:32:05;4.88;;;1.50;;
45540;SDS011;31265;49.680;8.608;2023-04-03T03:34:34;1.58;;;0.90;;
45540;SDS011;31265;49.680;8.608;2023-04-03T03:37:04;4.00;;;1.08;;
45540;SDS011;31265;49.680;8.608;2023-04-03T03:39:33;3.72;;;1.30;;
45540;SDS011;31265;49.680;8.608;2023-04-03T03:42:01;4.28;;;0.95;;
45540;SDS011;31265;49.680;8.608;2023-04-03T03:44:31;3.53;;;1.27;;
45540;SDS011;31265;49.680;8.608;2023-04-03T03:46:59;2.95;;;1.52;;
45540;SDS011;31265;49.680;8.608;2023-04-03T03:49:30;3.10;;;1.77;;
45540;SDS011;31265;49.680;8.608;2023-04-03T03:52:00;4.18;;;1.60;;
45540;SDS011;31265;49.680;8.608;2023-04-03T03:54:29;6.43;;;1.83;;
45540;SDS011;31265;49.680;8.608;2023-04-03T03:56:57;1.75;;;1.10;;
45540;SDS011;31265;49.680;8.608;2023-04-03T03:59:31;4.55;;;1.42;;
45540;SDS011;31265;49.680;8.608;2023-04-03T04:04:29;3.15;;;1.42;;
45540;SDS011;31265;49.680;8.608;2023-04-03T04:06:57;3.72;;;1.83;;
45540;SDS011;31265;49.680;8.608;2023-04-03T04:09:28;1.88;;;1.20;;
45540;SDS011;31265;49.680;8.608;2023-04-03T04:11:56;2.83;;;1.20;;
45540;SDS011;31265;49.680;8.608;2023-04-03T04:14:25;1.83;;;1.05;;
45540;SDS011;31265;49.680;8.608;2023-04-03T04:16:55;2.47;;;1.35;;
45540;SDS011;31265;49.680;8.608;2023-04-03T04:19:26;3.15;;;1.52;;
45540;SDS011;31265;49.680;8.608;2023-04-03T04:21:55;1.73;;;1.08;;
45540;SDS011;31265;49.680;8.608;2023-04-03T04:26:54;2.03;;;1.20;;
45540;SDS011;31265;49.680;8.608;2023-04-03T04:29:23;3.25;;;1.65;;
45540;SDS011;31265;49.680;8.608;2023-04-03T04:31:52;5.57;;;1.30;;
45540;SDS011;31265;49.680;8.608;2023-04-03T04:34:23;2.60;;;1.17;;
45540;SDS011;31265;49.680;8.608;2023-04-03T04:36:53;3.53;;;2.13;;
45540;SDS011;31265;49.680;8.608;2023-04-03T04:39:22;1.67;;;1.05;;
45540;SDS011;31265;49.680;8.608;2023-04-03T04:41:50;4.53;;;1.50;;
45540;SDS011;31265;49.680;8.608;2023-04-03T04:44:20;2.75;;;1.20;;
45540;SDS011;31265;49.680;8.608;2023-04-03T04:46:48;4.03;;;1.75;;
45540;SDS011;31265;49.680;8.608;2023-04-03T04:49:17;3.37;;;1.63;;
45540;SDS011;31265;49.680;8.608;2023-04-03T04:51:50;1.75;;;0.82;;
45540;SDS011;31265;49.680;8.608;2023-04-03T04:54:24;2.40;;;1.27;;
45540;SDS011;31265;49.680;8.608;2023-04-03T04:56:53;2.28;;;1.05;;
45540;SDS011;31265;49.680;8.608;2023-04-03T04:59:23;3.58;;;1.20;;
45540;SDS011;31265;49.680;8.608;2023-04-03T05:01:54;3.83;;;1.55;;
45540;SDS011;31265;49.680;8.608;2023-04-03T05:04:25;5.05;;;1.83;;
45540;SDS011;31265;49.680;8.608;2023-04-03T05:07:01;3.08;;;1.27;;
45540;SDS011;31265;49.680;8.608;2023-04-03T05:09:34;2.63;;;1.50;;
45540;SDS011;31265;49.680;8.608;2023-04-03T05:12:02;2.38;;;1.38;;
45540;SDS011;31265;49.680;8.608;2023-04-03T05:14:38;2.47;;;0.88;;
45540;SDS011;31265;49.680;8.608;2023-04-03T05:17:11;2.38;;;1.27;;
45540;SDS011;31265;49.680;8.608;2023-04-03T05:19:44;2.83;;;1.75;;
45540;SDS011;31265;49.680;8.608;2023-04-03T05:22:16;2.95;;;1.30;;
45540;SDS011;31265;49.680;8.608;2023-04-03T05:24:46;2.55;;;1.42;;
45540;SDS011;31265;49.680;8.608;2023-04-03T05:27:16;5.32;;;2.15;;
45540;SDS011;31265;49.680;8.608;2023-04-03T05:29:50;1.92;;;1.25;;
45540;SDS011;31265;49.680;8.608;2023-04-03T05:32:20;3.55;;;1.23;;
45540;SDS011;31265;49.680;8.608;2023-04-03T05:35:00;3.95;;;1.60;;
45540;SDS011;31265;49.680;8.608;2023-04-03T05:40:00;2.45;;;1.00;;
45540;SDS011;31265;49.680;8.608;2023-04-03T05:42:30;2.33;;;0.95;;
45540;SDS011;31265;49.680;8.608;2023-04-03T05:44:59;5.65;;;1.92;;
45540;SDS011;31265;49.680;8.608;2023-04-03T05:47:28;11.07;;;1.83;;
45540;SDS011;31265;49.680;8.608;2023-04-03T05:49:57;4.07;;;1.50;;
45540;SDS011;31265;49.680;8.608;2023-04-03T05:52:29;3.00;;;1.27;;
45540;SDS011;31265;49.680;8.608;2023-04-03T05:55:01;2.38;;;1.13;;
45540;SDS011;31265;49.680;8.608;2023-04-03T05:57:33;3.20;;;0.85;;
45540;SDS011;31265;49.680;8.608;2023-04-03T06:00:04;5.88;;;1.27;;
45540;SDS011;31265;49.680;8.608;2023-04-03T06:02:39;2.58;;;1.42;;
45540;SDS011;31265;49.680;8.608;2023-04-03T06:05:15;2.88;;;1.10;;
45540;SDS011;31265;49.680;8.608;2023-04-03T06:07:47;4.72;;;2.22;;
45540;SDS011;31265;49.680;8.608;2023-04-03T06:10:16;2.88;;;1.40;;
45540;SDS011;31265;49.680;8.608;2023-04-03T06:12:47;2.47;;;1.25;;
45540;SDS011;31265;49.680;8.608;2023-04-03T06:15:15;3.88;;;1.40;;
45540;SDS011;31265;49.680;8.608;2023-04-03T06:17:44;2.38;;;1.08;;
45540;SDS011;31265;49.680;8.608;2023-04-03T06:20:14;4.90;;;1.38;;
45540;SDS011;31265;49.680;8.608;2023-04-03T06:22:43;3.45;;;1.27;;
45540;SDS011;31265;49.680;8.608;2023-04-03T06:25:15;7.53;;;2.20;;
45540;SDS011;31265;49.680;8.608;2023-04-03T06:27:44;3.17;;;1.63;;
45540;SDS011;31265;49.680;8.608;2023-04-03T06:30:12;9.05;;;1.40;;
45540;SDS011;31265;49.680;8.608;2023-04-03T06:32:41;4.10;;;0.77;;
45540;SDS011;31265;49.680;8.608;2023-04-03T06:35:09;3.58;;;1.10;;
45540;SDS011;31265;49.680;8.608;2023-04-03T06:37:38;3.22;;;1.00;;
45540;SDS011;31265;49.680;8.608;2023-04-03T06:40:09;1.98;;;1.00;;
45540;SDS011;31265;49.680;8.608;2023-04-03T06:42:43;2.10;;;1.17;;
45540;SDS011;31265;49.680;8.608;2023-04-03T06:45:12;2.43;;;1.43;;
45540;SDS011;31265;49.680;8.608;2023-04-03T06:47:40;2.25;;;1.20;;
45540;SDS011;31265;49.680;8.608;2023-04-03T06:50:11;3.00;;;1.50;;
45540;SDS011;31265;49.680;8.608;2023-04-03T06:52:41;2.90;;;0.82;;
45540;SDS011;31265;49.680;8.608;2023-04-03T06:55:09;5.70;;;1.00;;
45540;SDS011;31265;49.680;8.608;2023-04-03T06:57:40;2.78;;;1.02;;
45540;SDS011;31265;49.680;8.608;2023-04-03T07:02:40;1.38;;;0.68;;
45540;SDS011;31265;49.680;8.608;2023-04-03T07:05:09;1.10;;;0.65;;
45540;SDS011;31265;49.680;8.608;2023-04-03T07:07:38;5.38;;;1.83;;
45540;SDS011;31265;49.680;8.608;2023-04-03T07:10:09;2.60;;;0.95;;
45540;SDS011;31265;49.680;8.608;2023-04-03T07:12:38;2.28;;;0.90;;
45540;SDS011;31265;49.680;8.608;2023-04-03T07:15:09;1.92;;;1.13;;
45540;SDS011;31265;49.680;8.608;2023-04-03T07:17:38;1.23;;;0.70;;
45540;SDS011;31265;49.680;8.608;2023-04-03T07:20:08;5.05;;;0.90;;
45540;SDS011;31265;49.680;8.608;2023-04-03T07:22:40;3.25;;;0.95;;
45540;SDS011;31265;49.680;8.608;2023-04-03T07:25:09;2.70;;;0.95;;
45540;SDS011;31265;49.680;8.608;2023-04-03T07:27:38;6.93;;;0.93;;
45540;SDS011;31265;49.680;8.608;2023-04-03T07:30:08;1.05;;;0.93;;
45540;SDS011;31265;49.680;8.608;2023-04-03T07:32:37;3.50;;;0.95;;
45540;SDS011;31265;49.680;8.608;2023-04-03T07:35:06;1.17;;;0.80;;
45540;SDS011;31265;49.680;8.608;2023-04-03T07:37:36;3.22;;;1.05;;
45540;SDS011;31265;49.680;8.608;2023-04-03T07:40:05;3.05;;;0.80;;
45540;SDS011;31265;49.680;8.608;2023-04-03T07:42:36;4.18;;;0.98;;
45540;SDS011;31265;49.680;8.608;2023-04-03T07:45:08;5.70;;;0.70;;
45540;SDS011;31265;49.680;8.608;2023-04-03T07:47:39;2.13;;;0.80;;
45540;SDS011;31265;49.680;8.608;2023-04-03T07:50:09;1.73;;;0.55;;
45540;SDS011;31265;49.680;8.608;2023-04-03T07:52:38;0.88;;;0.50;;
45540;SDS011;31265;49.680;8.608;2023-04-03T07:55:07;2.50;;;0.70;;
45540;SDS011;31265;49.680;8.608;2023-04-03T07:57:38;1.15;;;0.40;;
45540;SDS011;31265;49.680;8.608;2023-04-03T08:00:10;2.38;;;0.80;;
45540;SDS011;31265;49.680;8.608;2023-04-03T08:02:40;5.95;;;0.63;;
45540;SDS011;31265;49.680;8.608;2023-04-03T08:05:09;1.88;;;0.50;;
45540;SDS011;31265;49.680;8.608;2023-04-03T08:07:38;3.40;;;1.00;;
45540;SDS011;31265;49.680;8.608;2023-04-03T08:10:06;1.65;;;0.57;;
45540;SDS011;31265;49.680;8.608;2023-04-03T08:12:35;2.15;;;0.80;;
45540;SDS011;31265;49.680;8.608;2023-04-03T08:15:05;0.77;;;0.40;;
45540;SDS011;31265;49.680;8.608;2023-04-03T08:17:36;3.13;;;0.68;;
45540;SDS011;31265;49.680;8.608;2023-04-03T08:20:05;2.50;;;0.35;;
45540;SDS011;31265;49.680;8.608;2023-04-03T08:22:35;1.58;;;0.70;;
45540;SDS011;31265;49.680;8.608;2023-04-03T08:25:04;1.60;;;0.50;;
45540;SDS011;31265;49.680;8.608;2023-04-03T08:27:34;1.13;;;0.28;;
45540;SDS011;31265;49.680;8.608;2023-04-03T08:30:03;0.60;;;0.22;;
45540;SDS011;31265;49.680;8.608;2023-04-03T08:32:34;4.30;;;0.80;;
45540;SDS011;31265;49.680;8.608;2023-04-03T08:35:05;3.27;;;0.50;;
45540;SDS011;31265;49.680;8.608;2023-04-03T08:37:34;1.23;;;0.50;;
45540;SDS011;31265;49.680;8.608;2023-04-03T08:40:05;4.40;;;0.55;;
45540;SDS011;31265;49.680;8.608;2023-04-03T08:42:41;2.60;;;0.68;;
45540;SDS011;31265;49.680;8.608;2023-04-03T08:45:16;5.07;;;0.98;;
45540;SDS011;31265;49.680;8.608;2023-04-03T08:47:51;0.43;;;0.25;;
45540;SDS011;31265;49.680;8.608;2023-04-03T08:50:26;2.00;;;0.70;;
45540;SDS011;31265;49.680;8.608;2023-04-03T08:52:59;1.27;;;0.38;;
45540;SDS011;31265;49.680;8.608;2023-04-03T08:55:33;2.80;;;1.65;;
45540;SDS011;31265;49.680;8.608;2023-04-03T08:58:09;2.13;;;0.47;;
45540;SDS011;31265;49.680;8.608;2023-04-03T09:00:44;1.58;;;0.40;;
45540;SDS011;31265;49.680;8.608;2023-04-03T09:03:16;4.47;;;0.43;;
45540;SDS011;31265;49.680;8.608;2023-04-03T09:05:48;1.75;;;0.60;;
45540;SDS011;31265;49.680;8.608;2023-04-03T09:08:22;2.38;;;0.93;;
45540;SDS011;31265;49.680;8.608;2023-04-03T09:10:57;1.85;;;0.30;;
45540;SDS011;31265;49.680;8.608;2023-04-03T09:13:33;1.63;;;0.85;;
45540;SDS011;31265;49.680;8.608;2023-04-03T09:16:18;1.73;;;0.47;;
45540;SDS011;31265;49.680;8.608;2023-04-03T09:18:56;0.57;;;0.40;;
45540;SDS011;31265;49.680;8.608;2023-04-03T09:21:33;0.55;;;0.32;;
45540;SDS011;31265;49.680;8.608;2023-04-03T09:24:05;1.48;;;0.50;;
45540;SDS011;31265;49.680;8.608;2023-04-03T09:26:38;0.70;;;0.30;;
45540;SDS011;31265;49.680;8.608;2023-04-03T09:29:14;0.60;;;0.30;;
45540;SDS011;31265;49.680;8.608;2023-04-03T09:31:46;1.25;;;0.57;;
45540;SDS011;31265;49.680;8.608;2023-04-03T09:34:20;2.30;;;0.52;;
45540;SDS011;31265;49.680;8.608;2023-04-03T09:36:53;1.73;;;0.28;;
45540;SDS011;31265;49.680;8.608;2023-04-03T09:39:24;3.15;;;0.52;;
45540;SDS011;31265;49.680;8.608;2023-04-03T09:41:56;2.50;;;0.65;;
45540;SDS011;31265;49.680;8.608;2023-04-03T09:44:29;4.85;;;0.30;;
45540;SDS011;31265;49.680;8.608;2023-04-03T09:47:17;0.80;;;0.20;;
45540;SDS011;31265;49.680;8.608;2023-04-03T09:49:47;3.00;;;0.25;;
45540;SDS011;31265;49.680;8.608;2023-04-03T09:52:29;2.10;;;0.43;;
45540;SDS011;31265;49.680;8.608;2023-04-03T09:55:02;0.75;;;0.30;;
45540;SDS011;31265;49.680;8.608;2023-04-03T09:57:36;0.82;;;0.28;;
45540;SDS011;31265;49.680;8.608;2023-04-03T10:00:06;0.17;;;0.10;;
45540;SDS011;31265;49.680;8.608;2023-04-03T10:02:50;0.77;;;0.35;;
45540;SDS011;31265;49.680;8.608;2023-04-03T10:05:27;0.77;;;0.30;;
45540;SDS011;31265;49.680;8.608;2023-04-03T10:08:11;0.28;;;0.13;;
45540;SDS011;31265;49.680;8.608;2023-04-03T10:10:48;1.02;;;0.40;;
45540;SDS011;31265;49.680;8.608;2023-04-03T10:13:34;2.65;;;0.80;;
45540;SDS011;31265;49.680;8.608;2023-04-03T10:16:20;0.30;;;0.10;;
45540;SDS011;31265;49.680;8.608;2023-04-03T10:19:03;2.53;;;0.65;;
45540;SDS011;31265;49.680;8.608;2023-04-03T10:21:42;2.35;;;0.50;;
45540;SDS011;31265;49.680;8.608;2023-04-03T10:24:21;0.82;;;0.20;;
45540;SDS011;31265;49.680;8.608;2023-04-03T10:26:54;2.63;;;0.90;;
45540;SDS011;31265;49.680;8.608;2023-04-03T10:29:37;1.75;;;0.82;;
45540;SDS011;31265;49.680;8.608;2023-04-03T10:32:14;0.65;;;0.17;;
45540;SDS011;31265;49.680;8.608;2023-04-03T10:35:00;1.08;;;0.22;;
45540;SDS011;31265;49.680;8.608;2023-04-03T10:37:47;0.28;;;0.10;;
45540;SDS011;31265;49.680;8.608;2023-04-03T10:40:31;2.05;;;0.30;;
45540;SDS011;31265;49.680;8.608;2023-04-03T10:43:07;1.10;;;0.38;;
45540;SDS011;31265;49.680;8.608;2023-04-03T10:45:49;0.30;;;0.20;;
45540;SDS011;31265;49.680;8.608;2023-04-03T10:48:29;1.33;;;0.50;;
45540;SDS011;31265;49.680;8.608;2023-04-03T10:51:11;6.75;;;0.50;;
45540;SDS011;31265;49.680;8.608;2023-04-03T10:53:49;2.65;;;0.63;;
45540;SDS011;31265;49.680;8.608;2023-04-03T10:56:27;1.25;;;0.43;;
45540;SDS011;31265;49.680;8.608;2023-04-03T10:59:01;0.82;;;0.32;;
45540;SDS011;31265;49.680;8.608;2023-04-03T11:01:41;3.90;;;0.30;;
45540;SDS011;31265;49.680;8.608;2023-04-03T11:04:12;0.65;;;0.22;;
45540;SDS011;31265;49.680;8.608;2023-04-03T11:06:45;1.48;;;0.30;;
45540;SDS011;31265;49.680;8.608;2023-04-03T11:09:18;3.45;;;1.00;;
45540;SDS011;31265;49.680;8.608;2023-04-03T11:11:53;0.95;;;0.30;;
45540;SDS011;31265;49.680;8.608;2023-04-03T11:14:26;5.68;;;0.75;;
45540;SDS011;31265;49.680;8.608;2023-04-03T11:17:01;0.85;;;0.28;;
45540;SDS011;31265;49.680;8.608;2023-04-03T11:19:44;1.60;;;0.30;;
45540;SDS011;31265;49.680;8.608;2023-04-03T11:22:21;0.43;;;0.30;;
45540;SDS011;31265;49.680;8.608;2023-04-03T11:24:56;0.40;;;0.20;;
45540;SDS011;31265;49.680;8.608;2023-04-03T11:27:33;1.00;;;0.40;;
45540;SDS011;31265;49.680;8.608;2023-04-03T11:30:11;0.98;;;0.20;;
45540;SDS011;31265;49.680;8.608;2023-04-03T11:32:51;2.30;;;0.60;;
45540;SDS011;31265;49.680;8.608;2023-04-03T11:35:33;1.88;;;0.40;;
45540;SDS011;31265;49.680;8.608;2023-04-03T11:38:04;2.97;;;0.52;;
45540;SDS011;31265;49.680;8.608;2023-04-03T11:40:34;1.23;;;0.38;;
45540;SDS011;31265;49.680;8.608;2023-04-03T11:43:07;0.90;;;0.40;;
45540;SDS011;31265;49.680;8.608;2023-04-03T11:45:49;2.40;;;0.75;;
45540;SDS011;31265;49.680;8.608;2023-04-03T11:51:39;2.22;;;0.70;;
45540;SDS011;31265;49.680;8.608;2023-04-03T12:09:57;1.63;;;0.30;;
45540;SDS011;31265;49.680;8.608;2023-04-03T12:15:24;3.60;;;0.68;;
45540;SDS011;31265;49.680;8.608;2023-04-03T12:24:39;0.52;;;0.30;;
45540;SDS011;31265;49.680;8.608;2023-04-03T12:27:15;1.50;;;0.70;;
45540;SDS011;31265;49.680;8.608;2023-04-03T12:29:51;2.20;;;0.45;;
45540;SDS011;31265;49.680;8.608;2023-04-03T12:32:26;2.90;;;0.40;;
45540;SDS011;31265;49.680;8.608;2023-04-03T12:35:39;2.20;;;0.50;;
45540;SDS011;31265;49.680;8.608;2023-04-03T12:38:22;2.08;;;0.55;;
45540;SDS011;31265;49.680;8.608;2023-04-03T12:41:10;3.45;;;0.50;;
45540;SDS011;31265;49.680;8.608;2023-04-03T12:44:00;2.72;;;0.60;;
45540;SDS011;31265;49.680;8.608;2023-04-03T12:46:44;2.05;;;0.57;;
45540;SDS011;31265;49.680;8.608;2023-04-03T12:49:23;0.35;;;0.20;;
45540;SDS011;31265;49.680;8.608;2023-04-03T12:52:03;2.90;;;0.80;;
45540;SDS011;31265;49.680;8.608;2023-04-03T12:54:35;1.20;;;0.43;;
45540;SDS011;31265;49.680;8.608;2023-04-03T12:57:11;2.50;;;0.43;;
45540;SDS011;31265;49.680;8.608;2023-04-03T12:59:44;1.13;;;0.45;;
45540;SDS011;31265;49.680;8.608;2023-04-03T13:04:48;0.98;;;0.30;;
45540;SDS011;31265;49.680;8.608;2023-04-03T13:07:20;2.22;;;0.65;;
45540;SDS011;31265;49.680;8.608;2023-04-03T13:10:02;1.67;;;0.47;;
45540;SDS011;31265;49.680;8.608;2023-04-03T13:12:50;0.60;;;0.40;;
45540;SDS011;31265;49.680;8.608;2023-04-03T13:15:21;5.63;;;1.13;;
45540;SDS011;31265;49.680;8.608;2023-04-03T13:17:53;2.97;;;0.52;;
45540;SDS011;31265;49.680;8.608;2023-04-03T13:20:25;3.30;;;0.68;;
45540;SDS011;31265;49.680;8.608;2023-04-03T13:22:57;1.23;;;0.50;;
45540;SDS011;31265;49.680;8.608;2023-04-03T13:25:31;1.77;;;0.60;;
45540;SDS011;31265;49.680;8.608;2023-04-03T13:28:05;1.05;;;0.40;;
45540;SDS011;31265;49.680;8.608;2023-04-03T13:30:40;1.92;;;0.55;;
45540;SDS011;31265;49.680;8.608;2023-04-03T13:33:23;1.48;;;0.75;;
45540;SDS011;31265;49.680;8.608;2023-04-03T13:35:54;1.70;;;0.50;;
45540;SDS011;31265;49.680;8.608;2023-04-03T13:38:25;1.40;;;0.45;;
45540;SDS011;31265;49.680;8.608;2023-04-03T13:41:00;1.73;;;0.75;;
45540;SDS011;31265;49.680;8.608;2023-04-03T13:43:34;1.20;;;0.35;;
45540;SDS011;31265;49.680;8.608;2023-04-03T13:46:05;1.77;;;0.40;;
45540;SDS011;31265;49.680;8.608;2023-04-03T13:48:51;1.77;;;0.45;;
45540;SDS011;31265;49.680;8.608;2023-04-03T13:51:22;2.17;;;0.80;;
45540;SDS011;31265;49.680;8.608;2023-04-03T13:53:53;1.02;;;0.65;;
45540;SDS011;31265;49.680;8.608;2023-04-03T13:56:25;0.80;;;0.32;;
45540;SDS011;31265;49.680;8.608;2023-04-03T13:59:05;1.40;;;0.50;;
45540;SDS011;31265;49.680;8.608;2023-04-03T14:01:50;0.65;;;0.30;;
45540;SDS011;31265;49.680;8.608;2023-04-03T14:04:23;2.70;;;0.47;;
45540;SDS011;31265;49.680;8.608;2023-04-03T14:06:54;1.08;;;0.50;;
45540;SDS011;31265;49.680;8.608;2023-04-03T14:09:24;0.53;;;0.23;;
45540;SDS011;31265;49.680;8.608;2023-04-03T14:11:54;2.65;;;0.50;;
45540;SDS011;31265;49.680;8.608;2023-04-03T14:14:32;1.58;;;0.38;;
45540;SDS011;31265;49.680;8.608;2023-04-03T14:17:13;0.90;;;0.50;;
45540;SDS011;31265;49.680;8.608;2023-04-03T14:19:52;2.13;;;0.38;;
45540;SDS011;31265;49.680;8.608;2023-04-03T14:22:22;1.38;;;0.40;;
45540;SDS011;31265;49.680;8.608;2023-04-03T14:24:52;1.20;;;0.38;;
45540;SDS011;31265;49.680;8.608;2023-04-03T14:27:21;1.53;;;0.47;;
45540;SDS011;31265;49.680;8.608;2023-04-03T14:29:53;1.75;;;0.52;;
45540;SDS011;31265;49.680;8.608;2023-04-03T14:32:23;8.10;;;0.82;;
45540;SDS011;31265;49.680;8.608;2023-04-03T14:34:54;1.65;;;0.80;;
45540;SDS011;31265;49.680;8.608;2023-04-03T14:37:25;2.17;;;0.55;;
45540;SDS011;31265;49.680;8.608;2023-04-03T14:39:55;1.27;;;0.45;;
45540;SDS011;31265;49.680;8.608;2023-04-03T14:42:26;1.90;;;0.60;;
45540;SDS011;31265;49.680;8.608;2023-04-03T14:44:58;1.58;;;0.65;;
45540;SDS011;31265;49.680;8.608;2023-04-03T14:47:28;2.50;;;0.60;;
45540;SDS011;31265;49.680;8.608;2023-04-03T14:49:59;0.93;;;0.30;;
45540;SDS011;31265;49.680;8.608;2023-04-03T14:52:29;2.95;;;0.73;;
45540;SDS011;31265;49.680;8.608;2023-04-03T14:54:59;1.75;;;0.90;;
45540;SDS011;31265;49.680;8.608;2023-04-03T14:57:28;2.10;;;0.25;;
45540;SDS011;31265;49.680;8.608;2023-04-03T15:00:00;1.50;;;0.40;;
45540;SDS011;31265;49.680;8.608;2023-04-03T15:02:31;1.10;;;0.50;;
45540;SDS011;31265;49.680;8.608;2023-04-03T15:05:02;0.95;;;0.40;;
45540;SDS011;31265;49.680;8.608;2023-04-03T15:07:34;0.82;;;0.32;;
45540;SDS011;31265;49.680;8.608;2023-04-03T15:10:13;1.05;;;0.60;;
45540;SDS011;31265;49.680;8.608;2023-04-03T15:12:44;1.33;;;0.20;;
45540;SDS011;31265;49.680;8.608;2023-04-03T15:15:16;1.98;;;0.32;;
45540;SDS011;31265;49.680;8.608;2023-04-03T15:17:46;1.38;;;0.35;;
45540;SDS011;31265;49.680;8.608;2023-04-03T15:20:21;0.50;;;0.22;;
45540;SDS011;31265;49.680;8.608;2023-04-03T15:22:51;2.83;;;0.40;;
45540;SDS011;31265;49.680;8.608;2023-04-03T15:25:20;0.60;;;0.35;;
45540;SDS011;31265;49.680;8.608;2023-04-03T15:27:48;0.77;;;0.20;;
45540;SDS011;31265;49.680;8.608;2023-04-03T15:30:19;1.45;;;0.60;;
45540;SDS011;31265;49.680;8.608;2023-04-03T15:32:49;0.63;;;0.25;;
45540;SDS011;31265;49.680;8.608;2023-04-03T15:35:18;0.80;;;0.30;;
45540;SDS011;31265;49.680;8.608;2023-04-03T15:37:47;0.77;;;0.30;;
45540;SDS011;31265;49.680;8.608;2023-04-03T15:40:15;1.65;;;0.50;;
45540;SDS011;31265;49.680;8.608;2023-04-03T15:42:44;1.60;;;0.60;;
45540;SDS011;31265;49.680;8.608;2023-04-03T15:47:44;1.45;;;0.47;;
45540;SDS011;31265;49.680;8.608;2023-04-03T15:52:41;1.85;;;0.30;;
45540;SDS011;31265;49.680;8.608;2023-04-03T15:55:10;1.87;;;0.83;;
45540;SDS011;31265;49.680;8.608;2023-04-03T15:57:38;1.58;;;0.50;;
45540;SDS011;31265;49.680;8.608;2023-04-03T16:00:07;2.85;;;0.30;;
45540;SDS011;31265;49.680;8.608;2023-04-03T16:02:37;0.80;;;0.25;;
45540;SDS011;31265;49.680;8.608;2023-04-03T16:05:08;0.60;;;0.30;;
45540;SDS011;31265;49.680;8.608;2023-04-03T16:07:38;0.73;;;0.40;;
45540;SDS011;31265;49.680;8.608;2023-04-03T16:10:07;1.08;;;0.50;;